Time;durP1;ratioP1;P1;durP2;ratioP2;P2;SDS_P1;SDS_P2;PMS_P1;PMS_P2;Temp;Humidity;BMP_temperature;BMP_pressure;BME280_temperature;BME280_humidity;BME280_pressure;Samples;Min_cycle;Max_cycle;Signal;HPM_P1;HPM_P2
2021/01/04 00:02:20;;;;;;;3.33;1.70;;;18.30;53.20;;;;;;5049483;28;20196;-55
2021/01/04 00:04:59;;;;;;;1.70;1.60;;;18.20;53.30;;;;;;5070254;28;20210;-55
2021/01/04 00:08:01;;;;;;;2.72;1.50;;;18.20;53.30;;;;;;5051462;28;20646;-58
2021/01/04 00:10:39;;;;;;;1.63;1.50;;;18.10;53.30;;;;;;5067275;28;20640;-59
2021/01/04 00:13:04;;;;;;;1.85;1.63;;;18.10;53.40;;;;;;5067223;28;20177;-59
2021/01/04 00:15:44;;;;;;;2.03;1.80;;;18.00;53.40;;;;;;5085079;28;20211;-60
2021/01/04 00:18:42;;;;;;;2.22;1.77;;;18.00;53.40;;;;;;5084799;28;20595;-56
2021/01/04 00:21:16;;;;;;;1.70;1.60;;;17.90;53.40;;;;;;5075555;28;20551;-60
2021/01/04 00:24:03;;;;;;;2.95;1.92;;;17.80;53.40;;;;;;5085302;28;20178;-59
2021/01/04 00:26:35;;;;;;;3.08;1.70;;;17.90;53.60;;;;;;5067465;28;20721;-57
2021/01/04 00:29:01;;;;;;;1.70;1.60;;;17.80;53.50;;;;;;5067101;28;20246;-57
2021/01/04 00:31:30;;;;;;;3.22;2.10;;;17.70;53.50;;;;;;5050490;28;20214;-57
2021/01/04 00:34:25;;;;;;;2.45;1.95;;;17.70;53.50;;;;;;5084751;28;20166;-56
2021/01/04 00:37:09;;;;;;;3.78;1.88;;;17.70;53.60;;;;;;5082708;28;20247;-58
2021/01/04 00:40:00;;;;;;;2.55;2.08;;;17.70;53.50;;;;;;5068803;28;20166;-56
2021/01/04 00:42:45;;;;;;;3.40;1.65;;;17.60;53.50;;;;;;5066848;28;20262;-60
2021/01/04 00:45:35;;;;;;;2.00;1.80;;;17.60;53.50;;;;;;5066654;28;20261;-55
2021/01/04 00:48:24;;;;;;;2.20;1.95;;;17.60;53.50;;;;;;5066959;28;20190;-58
2021/01/04 00:51:08;;;;;;;2.13;1.92;;;17.50;53.50;;;;;;5084733;28;20316;-57
2021/01/04 00:53:36;;;;;;;1.90;1.70;;;17.50;53.50;;;;;;5067556;28;20209;-58
2021/01/04 00:56:30;;;;;;;1.90;1.80;;;17.50;53.50;;;;;;5050240;28;20174;-58
2021/01/04 00:59:14;;;;;;;1.95;1.85;;;17.50;53.50;;;;;;5066426;28;20173;-55
2021/01/04 01:02:04;;;;;;;1.83;1.73;;;17.50;53.50;;;;;;5084750;28;20631;-59
2021/01/04 01:04:41;;;;;;;2.22;2.03;;;17.40;53.50;;;;;;5083870;28;20180;-57
2021/01/04 01:07:12;;;;;;;2.05;1.85;;;17.40;53.50;;;;;;5086666;28;20173;-55
2021/01/04 01:09:51;;;;;;;1.95;1.83;;;17.40;53.50;;;;;;5104469;28;20218;-58
2021/01/04 01:12:21;;;;;;;1.85;1.75;;;17.30;53.50;;;;;;5104678;28;20201;-59
2021/01/04 01:15:04;;;;;;;2.95;1.95;;;17.30;53.50;;;;;;5086783;28;20176;-59
2021/01/04 01:17:59;;;;;;;2.38;1.90;;;17.30;53.50;;;;;;5104681;28;20177;-59
2021/01/04 01:20:24;;;;;;;3.55;2.08;;;17.30;53.50;;;;;;5086403;28;20173;-59
2021/01/04 01:22:50;;;;;;;1.70;1.60;;;17.20;53.40;;;;;;5086389;28;20627;-59
2021/01/04 01:25:17;;;;;;;2.33;2.13;;;17.20;53.40;;;;;;5069723;28;20215;-57
2021/01/04 01:27:55;;;;;;;1.98;1.88;;;17.20;53.50;;;;;;5086400;28;20191;-59
2021/01/04 01:30:28;;;;;;;1.80;1.70;;;17.20;53.50;;;;;;5104333;28;20218;-58
2021/01/04 01:33:19;;;;;;;2.00;1.88;;;17.20;53.50;;;;;;5090441;28;20259;-55
2021/01/04 01:36:20;;;;;;;2.33;2.13;;;17.20;53.50;;;;;;5111469;28;20184;-56
2021/01/04 01:39:14;;;;;;;2.15;1.95;;;17.10;53.40;;;;;;5008213;28;20184;-58
2021/01/04 01:42:23;;;;;;;2.28;2.08;;;17.10;53.40;;;;;;5110202;28;20181;-59
2021/01/04 01:45:04;;;;;;;2.05;1.77;;;17.10;53.40;;;;;;5092881;28;20176;-59
2021/01/04 01:47:44;;;;;;;1.80;1.70;;;17.10;53.40;;;;;;5094184;28;20630;-58
2021/01/04 01:50:20;;;;;;;2.40;2.20;;;17.10;53.40;;;;;;5111243;28;20177;-58
2021/01/04 01:52:48;;;;;;;2.20;1.98;;;17.00;53.50;;;;;;5076914;28;20179;-54
2021/01/04 01:55:38;;;;;;;2.20;2.00;;;17.00;53.40;;;;;;5111260;28;20397;-59
2021/01/04 01:58:22;;;;;;;2.55;2.17;;;17.00;53.40;;;;;;5078703;28;20184;-55
2021/01/04 02:00:53;;;;;;;2.08;1.90;;;17.00;53.40;;;;;;5110587;28;20176;-55
2021/01/04 02:03:32;;;;;;;1.88;1.77;;;17.00;53.40;;;;;;5065177;28;20174;-56
2021/01/04 02:06:10;;;;;;;2.22;2.03;;;16.90;53.30;;;;;;5069357;28;20178;-55
2021/01/04 02:08:44;;;;;;;2.28;2.08;;;16.90;53.30;;;;;;5070523;28;20175;-59
2021/01/04 02:11:21;;;;;;;2.20;2.00;;;16.90;53.30;;;;;;5069140;28;20273;-60
2021/01/04 02:13:56;;;;;;;2.28;2.08;;;16.90;53.30;;;;;;5069217;28;20186;-57
2021/01/04 02:16:36;;;;;;;2.33;2.20;;;16.90;53.40;;;;;;5070394;28;20627;-59
2021/01/04 02:19:32;;;;;;;1.75;1.60;;;16.90;53.30;;;;;;5069025;28;20774;-59
2021/01/04 02:21:58;;;;;;;2.15;1.95;;;16.90;53.30;;;;;;5069118;28;20287;-59
2021/01/04 02:24:24;;;;;;;2.05;1.95;;;16.90;53.30;;;;;;5070308;28;21162;-58
2021/01/04 02:27:29;;;;;;;2.00;1.90;;;16.90;53.30;;;;;;5069689;28;20167;-57
2021/01/04 02:29:54;;;;;;;2.60;2.40;;;16.80;53.20;;;;;;5069356;28;20170;-57
2021/01/04 02:32:20;;;;;;;2.10;1.90;;;16.80;53.20;;;;;;5069184;28;20548;-58
2021/01/04 02:34:53;;;;;;;2.20;2.00;;;16.80;53.30;;;;;;5069048;28;20174;-57
2021/01/04 02:37:19;;;;;;;2.33;2.13;;;16.80;53.30;;;;;;5069067;28;20174;-58
2021/01/04 02:39:47;;;;;;;2.00;1.80;;;16.80;53.20;;;;;;5068840;28;20177;-58
2021/01/04 02:42:28;;;;;;;2.20;2.00;;;16.80;53.20;;;;;;5068903;28;20253;-58
2021/01/04 02:44:54;;;;;;;2.15;1.95;;;16.80;53.20;;;;;;5066951;28;20239;-57
2021/01/04 02:47:35;;;;;;;2.03;1.88;;;16.70;53.20;;;;;;5065428;28;20174;-59
2021/01/04 02:50:16;;;;;;;2.03;1.90;;;16.70;53.20;;;;;;5065608;28;20166;-57
2021/01/04 02:52:42;;;;;;;2.00;1.80;;;16.70;53.20;;;;;;5066840;28;20200;-59
2021/01/04 02:55:11;;;;;;;1.98;1.88;;;16.70;53.20;;;;;;5066513;28;20178;-59
2021/01/04 02:57:42;;;;;;;2.35;1.90;;;16.70;53.20;;;;;;5065438;28;20251;-57
2021/01/04 03:00:09;;;;;;;2.17;1.98;;;16.70;53.20;;;;;;5064820;28;20182;-57
2021/01/04 03:02:40;;;;;;;2.53;2.33;;;16.60;53.10;;;;;;5066962;28;21090;-56
2021/01/04 03:05:07;;;;;;;1.80;1.70;;;16.70;53.10;;;;;;5089220;28;20204;-55
2021/01/04 03:07:33;;;;;;;2.00;1.90;;;16.60;53.10;;;;;;5107091;28;20317;-57
2021/01/04 03:10:00;;;;;;;2.50;2.08;;;16.60;53.20;;;;;;5107112;28;20694;-58
2021/01/04 03:12:28;;;;;;;2.35;2.05;;;16.60;53.10;;;;;;5106866;28;20205;-58
2021/01/04 03:15:27;;;;;;;1.88;1.77;;;16.60;53.20;;;;;;5089452;28;20260;-57
2021/01/04 03:18:22;;;;;;;2.05;1.77;;;16.60;53.10;;;;;;5079994;28;20189;-56
2021/01/04 03:20:48;;;;;;;2.45;1.90;;;16.60;53.10;;;;;;5088717;28;20177;-56
2021/01/04 03:23:13;;;;;;;1.83;1.73;;;16.60;53.20;;;;;;5088716;28;20177;-58
2021/01/04 03:25:47;;;;;;;1.73;1.63;;;16.60;53.20;;;;;;5106674;28;20177;-56
2021/01/04 03:28:27;;;;;;;2.00;1.90;;;16.50;53.00;;;;;;5072070;28;20188;-56
2021/01/04 03:30:53;;;;;;;2.25;2.05;;;16.50;53.00;;;;;;5106618;28;20250;-54
2021/01/04 03:33:19;;;;;;;2.00;1.90;;;16.50;53.10;;;;;;5106322;28;20216;-55
2021/01/04 03:35:44;;;;;;;2.13;1.92;;;16.50;53.10;;;;;;5106267;28;20177;-57
2021/01/04 03:38:11;;;;;;;1.90;1.80;;;16.50;53.10;;;;;;5106360;28;20173;-56
2021/01/04 03:40:36;;;;;;;2.25;2.05;;;16.50;53.00;;;;;;5106275;28;20253;-61
2021/01/04 03:43:02;;;;;;;2.47;2.28;;;16.50;53.10;;;;;;5106162;28;21097;-60
2021/01/04 03:45:27;;;;;;;1.83;1.73;;;16.50;53.00;;;;;;5105993;28;20184;-60
2021/01/04 03:47:53;;;;;;;1.73;1.63;;;16.50;53.00;;;;;;5106320;28;20199;-54
2021/01/04 03:50:19;;;;;;;1.73;1.63;;;16.50;53.00;;;;;;5106177;28;20579;-56
2021/01/04 03:52:44;;;;;;;2.60;2.08;;;16.40;53.00;;;;;;5105918;28;20188;-57
2021/01/04 03:55:11;;;;;;;2.03;1.83;;;16.40;53.00;;;;;;5105679;28;20180;-55
2021/01/04 03:57:37;;;;;;;1.92;1.83;;;16.40;53.00;;;;;;5105593;28;20207;-54
2021/01/04 04:00:05;;;;;;;2.10;1.90;;;16.40;53.00;;;;;;5106319;28;20937;-58
2021/01/04 04:02:31;;;;;;;2.45;1.88;;;16.40;53.00;;;;;;5105711;28;20192;-58
2021/01/04 04:04:57;;;;;;;1.98;1.88;;;16.40;53.00;;;;;;5085538;28;20182;-51
2021/01/04 04:07:22;;;;;;;1.95;1.85;;;16.40;53.00;;;;;;5085271;28;20174;-53
2021/01/04 04:09:48;;;;;;;1.95;1.85;;;16.30;53.00;;;;;;5085662;28;20293;-56
2021/01/04 04:12:13;;;;;;;1.75;1.65;;;16.40;53.00;;;;;;5085303;28;20945;-58
2021/01/04 04:14:39;;;;;;;2.20;1.60;;;16.40;53.10;;;;;;5085413;28;20186;-58
2021/01/04 04:17:04;;;;;;;2.15;1.95;;;16.30;53.00;;;;;;5085156;28;20181;-58
2021/01/04 04:19:30;;;;;;;2.20;2.03;;;16.40;53.00;;;;;;5085107;28;20257;-56
2021/01/04 04:21:56;;;;;;;1.88;1.77;;;16.30;53.00;;;;;;5084933;28;20185;-55
2021/01/04 04:24:21;;;;;;;2.22;2.03;;;16.30;53.00;;;;;;5085029;28;20174;-59
2021/01/04 04:26:47;;;;;;;1.80;1.70;;;16.30;53.00;;;;;;5085209;28;20186;-56
2021/01/04 04:29:12;;;;;;;1.70;1.60;;;16.30;53.00;;;;;;5085383;28;20185;-56
2021/01/04 04:31:44;;;;;;;1.90;1.80;;;16.30;53.00;;;;;;5084699;28;20216;-53
2021/01/04 04:34:10;;;;;;;2.10;2.00;;;16.30;53.00;;;;;;5067523;28;20700;-58
2021/01/04 04:36:35;;;;;;;1.55;1.45;;;16.30;53.00;;;;;;5084972;28;20170;-58
2021/01/04 04:39:01;;;;;;;1.60;1.50;;;16.20;52.90;;;;;;5084785;28;20614;-55
2021/01/04 04:41:33;;;;;;;1.80;1.70;;;16.20;52.90;;;;;;5084714;28;20201;-59
2021/01/04 04:44:26;;;;;;;1.88;1.77;;;16.30;53.00;;;;;;5067106;28;20834;-57
2021/01/04 04:47:20;;;;;;;1.83;1.73;;;16.20;52.90;;;;;;5069549;28;20170;-58
2021/01/04 04:50:01;;;;;;;2.00;1.90;;;16.20;52.90;;;;;;5066787;28;20169;-57
2021/01/04 04:52:45;;;;;;;1.75;1.65;;;16.20;52.90;;;;;;5066421;28;20205;-57
2021/01/04 04:55:37;;;;;;;2.08;1.73;;;16.20;52.90;;;;;;5084355;28;20990;-56
2021/01/04 04:58:27;;;;;;;1.73;1.60;;;16.20;52.90;;;;;;5069255;28;20177;-57
2021/01/04 05:01:13;;;;;;;2.03;1.92;;;16.20;52.90;;;;;;5084366;28;20177;-50
2021/01/04 05:04:00;;;;;;;1.50;1.40;;;16.20;52.90;;;;;;5093587;28;20185;-59
2021/01/04 05:06:35;;;;;;;2.10;1.95;;;16.20;53.00;;;;;;5104550;28;21016;-58
2021/01/04 05:09:25;;;;;;;1.70;1.60;;;16.10;52.90;;;;;;5105287;28;20626;-55
2021/01/04 05:12:17;;;;;;;1.80;1.70;;;16.10;52.90;;;;;;5104551;28;20208;-58
2021/01/04 05:15:07;;;;;;;1.60;1.50;;;16.10;52.90;;;;;;5088171;28;20177;-59
2021/01/04 05:18:10;;;;;;;1.77;1.67;;;16.10;53.00;;;;;;5104696;28;20169;-58
2021/01/04 05:20:58;;;;;;;2.10;2.00;;;16.10;52.90;;;;;;5104456;28;20183;-59
2021/01/04 05:23:52;;;;;;;1.55;1.45;;;16.10;53.00;;;;;;5104254;28;20554;-57
2021/01/04 05:26:36;;;;;;;1.90;1.70;;;16.10;53.00;;;;;;5089119;28;20633;-57
2021/01/04 05:29:21;;;;;;;1.52;1.42;;;16.10;53.00;;;;;;5086246;28;20254;-57
2021/01/04 05:31:56;;;;;;;1.80;1.70;;;16.10;53.00;;;;;;5087140;28;20236;-56
2021/01/04 05:34:42;;;;;;;1.60;1.50;;;16.10;52.90;;;;;;5104502;28;20169;-54
2021/01/04 05:37:30;;;;;;;1.70;1.60;;;16.10;53.00;;;;;;5104442;28;20173;-52
2021/01/04 05:40:18;;;;;;;1.75;1.65;;;16.00;52.90;;;;;;5086294;28;20176;-56
2021/01/04 05:42:58;;;;;;;1.90;1.73;;;16.00;52.90;;;;;;5104596;28;20173;-59
2021/01/04 05:45:40;;;;;;;2.17;1.75;;;16.00;52.90;;;;;;5086315;28;20165;-58
2021/01/04 05:48:17;;;;;;;1.92;1.70;;;16.00;53.00;;;;;;5104611;28;20169;-58
2021/01/04 05:50:49;;;;;;;1.60;1.50;;;16.00;52.90;;;;;;5104397;28;20223;-59
2021/01/04 05:53:15;;;;;;;1.98;1.77;;;16.00;53.00;;;;;;5103843;28;20665;-59
2021/01/04 05:55:40;;;;;;;1.60;1.50;;;16.00;52.90;;;;;;5104359;28;20197;-60
2021/01/04 05:58:16;;;;;;;1.80;1.70;;;16.00;53.00;;;;;;5104106;28;20165;-58
2021/01/04 06:00:41;;;;;;;1.60;1.50;;;16.00;53.00;;;;;;5085882;28;20172;-57
2021/01/04 06:03:12;;;;;;;1.73;1.63;;;16.00;53.10;;;;;;5098592;28;20189;-54
2021/01/04 06:05:38;;;;;;;1.30;1.20;;;16.10;53.20;;;;;;5084175;28;20702;-58
2021/01/04 06:08:04;;;;;;;1.40;1.30;;;16.20;53.20;;;;;;5083924;28;20268;-59
2021/01/04 06:10:35;;;;;;;1.50;1.40;;;16.30;53.20;;;;;;5083843;28;20310;-58
2021/01/04 06:13:03;;;;;;;1.55;1.45;;;16.60;53.00;;;;;;5084184;28;20192;-58
2021/01/04 06:15:33;;;;;;;1.40;1.30;;;16.80;52.60;;;;;;5066460;28;20198;-58
2021/01/04 06:18:06;;;;;;;1.08;1.05;;;17.10;52.30;;;;;;5083804;28;20260;-59
2021/01/04 06:20:44;;;;;;;1.40;1.30;;;17.40;51.50;;;;;;5068525;28;20188;-58
2021/01/04 06:23:18;;;;;;;1.30;1.20;;;17.70;51.10;;;;;;5087573;28;20170;-59
2021/01/04 06:25:44;;;;;;;1.10;1.10;;;17.90;50.70;;;;;;5069984;28;20166;-60
2021/01/04 06:28:09;;;;;;;1.30;1.20;;;18.00;50.50;;;;;;5087542;28;20216;-58
2021/01/04 06:30:36;;;;;;;1.70;1.45;;;18.20;50.30;;;;;;5087743;28;20678;-57
2021/01/04 06:33:08;;;;;;;1.55;1.45;;;18.30;50.10;;;;;;5069609;28;20186;-53
2021/01/04 06:35:34;;;;;;;1.65;1.55;;;18.30;50.30;;;;;;5070053;28;20624;-59
2021/01/04 06:38:08;;;;;;;1.23;1.13;;;18.40;49.90;;;;;;5087396;28;20173;-55
2021/01/04 06:40:42;;;;;;;1.30;1.20;;;18.40;49.90;;;;;;5069082;28;20178;-58
2021/01/04 06:43:15;;;;;;;1.50;1.40;;;18.40;49.90;;;;;;5086690;28;20193;-58
2021/01/04 06:45:54;;;;;;;1.40;1.30;;;18.50;49.90;;;;;;5087244;28;20174;-57
2021/01/04 06:48:37;;;;;;;1.40;1.27;;;18.50;49.90;;;;;;5087349;28;20234;-58
2021/01/04 06:51:14;;;;;;;1.17;1.17;;;18.50;49.90;;;;;;5071538;28;20207;-55
2021/01/04 06:54:07;;;;;;;0.90;0.90;;;18.50;49.90;;;;;;5068916;28;20725;-58
2021/01/04 06:57:06;;;;;;;1.40;1.30;;;18.50;49.90;;;;;;5068909;28;20556;-59
2021/01/04 06:59:40;;;;;;;1.10;1.00;;;18.50;49.90;;;;;;5068642;28;20180;-56
2021/01/04 07:02:22;;;;;;;1.50;1.40;;;18.60;49.90;;;;;;5052650;28;21127;-56
2021/01/04 07:05:20;;;;;;;1.23;1.13;;;18.50;49.90;;;;;;5088185;28;20180;-57
2021/01/04 07:07:52;;;;;;;1.50;1.40;;;18.40;50.00;;;;;;5107084;28;20180;-56
2021/01/04 07:10:54;;;;;;;1.20;1.10;;;18.30;50.20;;;;;;5106763;28;20635;-58
2021/01/04 07:13:43;;;;;;;1.38;1.27;;;18.20;50.30;;;;;;5106428;28;20682;-59
2021/01/04 07:16:16;;;;;;;1.40;1.30;;;18.10;50.60;;;;;;5088404;28;20270;-56
2021/01/04 07:18:46;;;;;;;1.40;1.30;;;18.00;50.70;;;;;;5088929;28;20177;-59
2021/01/04 07:21:32;;;;;;;1.23;1.13;;;18.00;50.90;;;;;;5088707;28;20269;-59
2021/01/04 07:24:16;;;;;;;1.50;1.40;;;18.00;50.90;;;;;;5088484;28;20181;-57
2021/01/04 07:27:01;;;;;;;1.63;1.52;;;18.00;50.90;;;;;;5072892;28;20165;-59
2021/01/04 07:29:40;;;;;;;1.40;1.17;;;18.00;50.90;;;;;;5088245;28;20279;-56
2021/01/04 07:32:19;;;;;;;1.38;1.27;;;18.00;50.80;;;;;;5072640;28;20200;-58
2021/01/04 07:34:54;;;;;;;1.40;1.30;;;18.00;50.80;;;;;;5088554;28;20694;-56
2021/01/04 07:37:41;;;;;;;1.40;1.30;;;17.90;50.90;;;;;;5072149;28;20673;-55
2021/01/04 07:40:25;;;;;;;1.30;1.25;;;17.80;51.00;;;;;;5106058;28;20573;-59
2021/01/04 07:43:17;;;;;;;1.40;1.30;;;17.80;51.10;;;;;;5106552;28;20177;-57
2021/01/04 07:45:55;;;;;;;1.35;1.08;;;17.80;51.00;;;;;;5088455;28;20204;-59
2021/01/04 07:48:44;;;;;;;1.58;1.48;;;17.90;51.00;;;;;;5106399;28;20249;-61
2021/01/04 07:51:47;;;;;;;2.72;1.30;;;17.90;51.10;;;;;;5106595;28;20334;-61
2021/01/04 07:54:30;;;;;;;3.47;1.70;;;17.90;51.40;;;;;;5106439;28;20184;-61
2021/01/04 07:57:15;;;;;;;1.48;1.38;;;17.90;51.70;;;;;;5087679;28;20510;-61
2021/01/04 07:59:58;;;;;;;4.95;1.83;;;17.90;51.60;;;;;;5087755;28;20172;-58
2021/01/04 08:02:46;;;;;;;3.65;2.13;;;17.80;52.10;;;;;;5087688;28;20169;-61
2021/01/04 08:05:29;;;;;;;4.07;1.60;;;17.70;52.40;;;;;;5065503;28;20699;-61
2021/01/04 08:08:18;;;;;;;4.78;2.33;;;17.70;52.50;;;;;;5048653;28;20194;-61
2021/01/04 08:10:43;;;;;;;2.55;1.77;;;17.60;52.50;;;;;;5050141;28;20583;-61
2021/01/04 08:13:46;;;;;;;1.75;1.52;;;17.60;52.60;;;;;;5065150;28;20182;-62
2021/01/04 08:16:23;;;;;;;2.85;1.83;;;17.60;52.80;;;;;;5065158;28;20255;-61
2021/01/04 08:18:51;;;;;;;4.93;1.90;;;17.60;52.90;;;;;;5047541;28;20311;-61
2021/01/04 08:21:29;;;;;;;3.38;1.73;;;17.60;53.10;;;;;;5047388;28;20174;-61
2021/01/04 08:24:04;;;;;;;3.78;1.67;;;17.70;53.00;;;;;;5047121;28;20170;-62
2021/01/04 08:26:56;;;;;;;3.45;1.90;;;17.70;53.00;;;;;;5064879;28;20174;-63
2021/01/04 08:29:54;;;;;;;2.88;1.80;;;17.70;53.00;;;;;;5047090;28;20548;-61
2021/01/04 08:32:33;;;;;;;2.35;1.50;;;17.60;53.00;;;;;;5029082;28;20705;-61
2021/01/04 08:35:14;;;;;;;2.13;1.80;;;17.50;53.10;;;;;;5067171;28;20284;-61
2021/01/04 08:37:41;;;;;;;2.95;1.63;;;17.50;53.30;;;;;;5083925;28;20254;-62
2021/01/04 08:40:22;;;;;;;2.03;1.70;;;17.40;53.50;;;;;;5065983;28;20174;-61
2021/01/04 08:42:59;;;;;;;3.35;1.70;;;17.40;53.60;;;;;;5080770;28;20209;-61
2021/01/04 08:45:30;;;;;;;3.72;1.95;;;17.40;53.70;;;;;;5084194;28;20230;-61
2021/01/04 08:47:57;;;;;;;2.08;1.48;;;17.40;53.60;;;;;;5088459;28;20587;-61
2021/01/04 08:50:23;;;;;;;3.10;1.92;;;17.40;53.60;;;;;;5084035;28;20281;-61
2021/01/04 08:52:55;;;;;;;2.47;1.75;;;17.50;53.60;;;;;;5083834;28;20623;-61
2021/01/04 08:55:31;;;;;;;2.80;1.65;;;17.50;53.70;;;;;;5050369;28;20515;-61
2021/01/04 08:57:59;;;;;;;5.63;1.80;;;17.40;53.70;;;;;;5066596;28;20627;-61
2021/01/04 09:00:26;;;;;;;2.17;1.40;;;17.40;53.80;;;;;;5066812;28;20173;-63
2021/01/04 09:02:54;;;;;;;3.20;2.03;;;17.40;53.90;;;;;;5069793;28;20181;-62
2021/01/04 09:05:33;;;;;;;2.00;1.67;;;17.40;53.90;;;;;;5104909;28;20249;-61
2021/01/04 09:07:59;;;;;;;2.65;1.30;;;17.30;54.00;;;;;;5086622;28;20185;-62
2021/01/04 09:10:39;;;;;;;4.70;1.83;;;17.30;54.20;;;;;;5086682;28;20166;-62
2021/01/04 09:13:31;;;;;;;2.30;1.30;;;17.20;54.20;;;;;;5081463;28;20205;-62
2021/01/04 09:16:07;;;;;;;2.25;1.55;;;17.30;54.30;;;;;;5082922;28;20675;-61
2021/01/04 09:18:39;;;;;;;2.80;1.70;;;17.30;54.30;;;;;;5048973;28;20205;-66
2021/01/04 09:21:29;;;;;;;2.45;1.63;;;17.30;54.20;;;;;;5050156;28;20173;-65
2021/01/04 09:24:22;;;;;;;4.40;1.63;;;17.30;54.20;;;;;;5084371;28;20174;-65
2021/01/04 09:26:48;;;;;;;3.42;2.00;;;17.30;54.10;;;;;;5084393;28;20193;-65
2021/01/04 09:29:36;;;;;;;2.67;1.60;;;17.20;54.10;;;;;;5084243;28;20260;-63
2021/01/04 09:32:05;;;;;;;3.72;1.70;;;17.20;54.10;;;;;;5083976;28;20197;-64
2021/01/04 09:34:30;;;;;;;3.95;1.67;;;17.10;54.10;;;;;;5066329;28;20627;-64
2021/01/04 09:37:24;;;;;;;2.50;1.77;;;17.10;54.10;;;;;;5084303;28;20182;-65
2021/01/04 09:39:59;;;;;;;3.67;2.08;;;17.10;54.20;;;;;;5061921;28;20193;-63
2021/01/04 09:42:26;;;;;;;2.72;1.73;;;17.10;54.20;;;;;;5066337;28;20185;-66
2021/01/04 09:44:52;;;;;;;3.55;1.85;;;17.20;54.20;;;;;;5049817;28;20260;-65
2021/01/04 09:47:24;;;;;;;4.68;1.85;;;17.20;54.10;;;;;;5084135;28;20247;-65
2021/01/04 09:49:51;;;;;;;2.40;2.17;;;17.20;54.00;;;;;;5049178;28;20192;-65
2021/01/04 09:52:28;;;;;;;3.20;1.75;;;17.20;53.90;;;;;;5065962;28;20206;-65
2021/01/04 09:54:57;;;;;;;2.17;1.80;;;17.20;53.90;;;;;;5054183;28;20185;-65
2021/01/04 09:57:23;;;;;;;2.70;1.83;;;17.10;53.90;;;;;;5053549;28;20589;-63
2021/01/04 09:59:50;;;;;;;3.33;1.58;;;17.10;54.00;;;;;;5053518;28;20655;-65
2021/01/04 10:02:27;;;;;;;2.60;1.85;;;17.10;54.00;;;;;;5070367;28;20534;-65
2021/01/04 10:04:53;;;;;;;2.60;1.83;;;17.00;54.00;;;;;;5073393;28;20173;-64
2021/01/04 10:07:23;;;;;;;2.08;1.90;;;17.00;54.10;;;;;;5108313;28;20222;-60
2021/01/04 10:09:50;;;;;;;1.88;1.75;;;17.00;54.00;;;;;;5089977;28;20169;-61
2021/01/04 10:12:17;;;;;;;5.38;2.10;;;17.10;54.20;;;;;;5090060;28;20197;-62
2021/01/04 10:14:46;;;;;;;4.80;1.80;;;17.10;54.10;;;;;;5107985;28;20181;-61
2021/01/04 10:17:11;;;;;;;1.80;1.70;;;17.20;53.90;;;;;;5073208;28;20705;-60
2021/01/04 10:19:45;;;;;;;3.42;1.83;;;17.20;53.80;;;;;;5107858;28;20205;-59
2021/01/04 10:22:16;;;;;;;2.80;1.92;;;17.30;53.90;;;;;;5089386;28;20229;-61
2021/01/04 10:24:55;;;;;;;4.28;2.08;;;17.30;54.00;;;;;;5089615;28;20883;-61
2021/01/04 10:27:22;;;;;;;2.33;1.70;;;17.40;54.00;;;;;;5073221;28;20199;-61
2021/01/04 10:29:52;;;;;;;2.72;1.60;;;17.50;53.90;;;;;;5072862;28;20214;-61
2021/01/04 10:32:18;;;;;;;2.25;1.80;;;17.60;53.60;;;;;;5089850;28;20285;-61
2021/01/04 10:34:45;;;;;;;4.95;2.00;;;17.70;53.50;;;;;;5107703;28;20630;-60
2021/01/04 10:37:53;;;;;;;5.55;1.83;;;17.80;53.40;;;;;;5107599;28;20164;-60
2021/01/04 10:40:23;;;;;;;2.63;1.65;;;17.90;53.40;;;;;;5107031;28;20929;-61
2021/01/04 10:42:59;;;;;;;4.22;1.77;;;17.90;53.30;;;;;;5107670;28;20247;-61
2021/01/04 10:45:32;;;;;;;5.88;1.98;;;17.90;53.10;;;;;;5091388;28;20258;-61
2021/01/04 10:48:12;;;;;;;2.65;1.52;;;18.00;53.20;;;;;;5107378;28;20219;-61
2021/01/04 10:50:45;;;;;;;4.63;1.50;;;18.00;53.10;;;;;;5107136;28;20173;-62
2021/01/04 10:53:33;;;;;;;3.92;1.95;;;18.00;53.10;;;;;;5107401;28;20169;-60
2021/01/04 10:56:16;;;;;;;4.03;1.73;;;17.90;53.30;;;;;;5090124;28;20169;-61
2021/01/04 10:59:22;;;;;;;2.80;1.90;;;17.80;53.40;;;;;;5106955;28;20175;-60
2021/01/04 11:01:49;;;;;;;4.18;1.65;;;17.80;53.60;;;;;;5089217;28;20234;-62
2021/01/04 11:04:16;;;;;;;1.77;1.60;;;17.70;53.70;;;;;;5091703;28;20181;-60
2021/01/04 11:06:44;;;;;;;3.30;1.83;;;17.80;53.80;;;;;;5068394;28;20177;-61
2021/01/04 11:09:30;;;;;;;2.63;1.63;;;17.80;53.80;;;;;;5086420;28;20165;-61
2021/01/04 11:12:13;;;;;;;2.22;1.60;;;17.80;53.80;;;;;;5086408;28;20228;-62
2021/01/04 11:14:57;;;;;;;2.15;1.75;;;17.90;53.70;;;;;;5086457;28;20208;-62
2021/01/04 11:17:29;;;;;;;2.70;1.50;;;17.90;53.70;;;;;;5069235;28;20189;-62
2021/01/04 11:20:20;;;;;;;2.53;1.42;;;17.80;53.60;;;;;;5086796;28;20494;-60
2021/01/04 11:22:46;;;;;;;2.78;1.23;;;17.80;53.70;;;;;;5086603;28;20344;-62
2021/01/04 11:25:12;;;;;;;3.20;1.20;;;17.80;53.90;;;;;;5086276;28;20288;-62
2021/01/04 11:27:37;;;;;;;3.65;1.48;;;17.70;54.00;;;;;;5085924;28;20197;-61
2021/01/04 11:30:04;;;;;;;4.90;1.30;;;17.70;54.00;;;;;;5086107;28;20170;-61
2021/01/04 11:32:30;;;;;;;4.43;1.80;;;17.60;54.10;;;;;;5085901;28;20569;-59
2021/01/04 11:35:00;;;;;;;1.85;1.38;;;17.50;54.00;;;;;;5086042;28;20174;-59
2021/01/04 11:37:25;;;;;;;2.03;1.23;;;17.60;53.90;;;;;;5085924;28;20181;-64
2021/01/04 11:39:52;;;;;;;3.05;1.60;;;17.60;53.80;;;;;;5068175;28;20178;-63
2021/01/04 11:42:17;;;;;;;2.10;1.50;;;17.60;53.60;;;;;;5086080;28;20703;-65
2021/01/04 11:44:43;;;;;;;3.92;1.60;;;17.60;53.70;;;;;;5085912;28;20170;-59
2021/01/04 11:47:08;;;;;;;2.30;1.33;;;17.50;53.80;;;;;;5085684;28;20177;-60
2021/01/04 11:49:35;;;;;;;3.85;1.38;;;17.50;53.90;;;;;;5085692;28;20185;-61
2021/01/04 11:52:01;;;;;;;1.88;1.48;;;17.50;54.00;;;;;;5085682;28;20201;-59
2021/01/04 11:54:26;;;;;;;4.00;1.80;;;17.40;54.10;;;;;;5085772;28;20704;-60
2021/01/04 11:56:52;;;;;;;1.95;1.30;;;17.40;54.00;;;;;;5085471;28;21087;-60
2021/01/04 11:59:18;;;;;;;1.30;1.20;;;17.40;54.10;;;;;;5085444;28;20243;-60
2021/01/04 12:01:43;;;;;;;1.25;1.15;;;17.40;54.00;;;;;;5085443;28;20181;-62
2021/01/04 12:04:09;;;;;;;3.83;1.20;;;17.50;54.10;;;;;;5081176;28;20255;-62
2021/01/04 12:06:35;;;;;;;1.77;1.38;;;17.50;54.20;;;;;;5105716;28;20177;-64
2021/01/04 12:09:00;;;;;;;2.17;1.40;;;17.50;54.10;;;;;;5087770;28;20177;-62
2021/01/04 12:11:35;;;;;;;2.40;1.63;;;17.50;54.10;;;;;;5105643;28;20215;-64
2021/01/04 12:14:01;;;;;;;4.10;1.85;;;17.50;54.10;;;;;;5088350;28;20225;-63
2021/01/04 12:16:28;;;;;;;3.45;1.42;;;17.40;54.10;;;;;;5104704;28;20177;-65
2021/01/04 12:18:54;;;;;;;2.25;1.38;;;17.40;54.20;;;;;;5105555;28;20589;-62
2021/01/04 12:21:23;;;;;;;3.33;1.25;;;17.40;54.50;;;;;;5105664;28;20203;-61
2021/01/04 12:23:49;;;;;;;2.70;1.30;;;17.30;54.30;;;;;;5105047;28;20165;-61
2021/01/04 12:26:14;;;;;;;3.08;1.30;;;17.40;54.50;;;;;;5105447;28;20177;-61
2021/01/04 12:28:40;;;;;;;1.45;1.35;;;17.40;54.50;;;;;;5104781;28;20239;-60
2021/01/04 12:31:05;;;;;;;1.67;1.25;;;17.40;54.50;;;;;;5081424;28;20713;-61
2021/01/04 12:33:31;;;;;;;3.10;1.30;;;17.50;54.40;;;;;;5084276;28;20174;-61
2021/01/04 12:35:57;;;;;;;1.80;1.25;;;17.70;54.20;;;;;;5084413;28;20277;-60
2021/01/04 12:38:22;;;;;;;1.98;1.17;;;18.00;54.50;;;;;;5084911;28;20679;-61
2021/01/04 12:40:48;;;;;;;1.10;1.00;;;18.20;53.50;;;;;;5084736;28;20177;-62
2021/01/04 12:43:13;;;;;;;3.10;1.10;;;18.50;53.00;;;;;;5084823;28;20178;-61
2021/01/04 12:45:39;;;;;;;2.47;1.15;;;18.70;52.60;;;;;;5084726;28;20177;-62
2021/01/04 12:48:05;;;;;;;2.00;1.60;;;19.00;52.30;;;;;;5084706;28;20169;-60
2021/01/04 12:50:30;;;;;;;4.20;1.10;;;19.20;52.00;;;;;;5084243;28;20182;-62
2021/01/04 12:52:56;;;;;;;1.88;1.10;;;19.30;51.60;;;;;;5084625;28;20278;-61
2021/01/04 12:55:23;;;;;;;1.40;0.90;;;19.50;51.40;;;;;;5084402;28;20181;-61
2021/01/04 12:57:48;;;;;;;1.83;1.17;;;19.60;51.20;;;;;;5084623;28;20291;-62
2021/01/04 13:00:22;;;;;;;3.53;1.15;;;19.60;51.20;;;;;;5084212;28;20647;-61
2021/01/04 13:02:52;;;;;;;1.52;0.85;;;19.60;51.20;;;;;;5086915;28;20952;-60
2021/01/04 13:05:18;;;;;;;1.15;0.90;;;19.60;51.30;;;;;;5104567;28;20258;-60
2021/01/04 13:07:43;;;;;;;2.28;1.17;;;19.50;51.40;;;;;;5104778;28;20242;-62
2021/01/04 13:10:10;;;;;;;1.05;0.85;;;19.50;51.50;;;;;;5104781;28;20184;-61
2021/01/04 13:12:36;;;;;;;0.98;0.90;;;19.40;51.50;;;;;;5104388;28;20235;-58
2021/01/04 13:15:02;;;;;;;1.23;1.13;;;19.40;51.80;;;;;;5104770;28;20185;-61
2021/01/04 13:17:28;;;;;;;1.38;0.85;;;19.40;51.80;;;;;;5086751;28;20544;-66
2021/01/04 13:19:53;;;;;;;1.52;1.13;;;19.30;52.00;;;;;;5105152;28;20697;-64
2021/01/04 13:22:20;;;;;;;1.10;0.80;;;19.30;51.80;;;;;;5104619;28;20184;-63
2021/01/04 13:24:45;;;;;;;1.50;0.93;;;19.30;51.90;;;;;;5104417;28;20867;-61
2021/01/04 13:27:11;;;;;;;1.05;1.00;;;19.30;52.10;;;;;;5104345;28;20192;-61
2021/01/04 13:29:36;;;;;;;2.03;0.90;;;19.20;52.30;;;;;;5104035;28;20215;-61